• Join FlightAware (Why Join?)
  • Login
  • US Flag 
11:14AM EDT


 

Airport Tracker/Info


-or-


 

Live Flight TrackerFlight Track Log ✈ N75ZM ✈ 08-Aug-2013 ✈ KCHA - KYIP

Flight Track Log - Related Links

Times and Time Zones

All times are in EDT time to prevent confusion due to time zone crossing. See the N75ZM flight status page for this flight to view local times or setup timezone preferences in your user account.

Time Position Orientation Groundspeed Altitude Reporting Facility
EDT Latitude Longitude Course Direction KTS MPH feet Rate Location/Type
10:25AM 35.2843 -85.0956 12° North  Level FlightAware Approximate
10:26AM 35.3278 -85.0847 12° North  Level FlightAware Approximate
10:27AM 35.3732 -85.0754 North  Level Estimated
10:28AM 35.4185 -85.0662 North  Level Estimated
10:29AM 35.4639 -85.0569 North  Level Estimated
10:30AM 35.5092 -85.0476 North  Level Estimated
10:31AM 35.5546 -85.0383 North  Level Estimated
10:32AM 35.5999 -85.0290 North  Level Estimated
10:33AM 35.6453 -85.0196 North  Level Estimated
10:34AM 35.6906 -85.0103 North  Level Estimated
10:35AM 35.7360 -85.0009 10° North  Level Estimated
10:36AM 35.7813 -84.9916 10° North  Level Estimated
10:37AM 35.8267 -84.9822 10° North  Level Estimated
10:38AM 35.8720 -84.9728 10° North  Level Estimated
10:39AM 35.9174 -84.9634 10° North  Level Estimated
10:40AM 35.9627 -84.9540 10° North  Level Estimated
10:41AM 36.0081 -84.9446 10° North  Level Estimated
10:42AM 36.0534 -84.9352 10° North  Level Estimated
10:43AM 36.0988 -84.9257 10° North  Level Estimated
10:44AM 36.1441 -84.9163 10° North  Level Estimated
10:45AM 36.1895 -84.9068 10° North  Level Estimated
10:46AM 36.2348 -84.8973 10° North  Level Estimated
10:47AM 36.2802 -84.8879 10° North  Level Estimated
10:48AM 36.3255 -84.8784 10° North  Level Estimated
10:49AM 36.3708 -84.8689 10° North  Level Estimated
10:50AM 36.4162 -84.8594 10° North  Level Estimated
10:51AM 36.4615 -84.8498 10° North  Level Estimated
10:52AM 36.5069 -84.8403 10° North  Level Estimated
10:52AM 35.9125 -83.8944 10° North 176 203 9,200  Level Indianapolis Center
10:53AM 36.5522 -84.8307 10° North  Level Estimated
10:53AM 35.9586 -83.8947 360° North 169 194 9,200  Level Indianapolis Center
10:54AM 36.5975 -84.8212 10° North  Level Estimated
10:54AM 36.0047 -83.8900 North 167 192 9,100  Level Indianapolis Center
10:55AM 36.6429 -84.8116 10° North  Level Estimated
10:55AM 36.0511 -83.8883 North 167 192 9,100  Level Indianapolis Center
10:56AM 36.6882 -84.8020 10° North  Level Estimated
10:56AM 36.0978 -83.8861 North 167 192 9,100  Level Indianapolis Center
10:57AM 36.7335 -84.7924 10° North  Level Estimated
10:57AM 36.1269 -83.8869 359° North 171 197 9,100  Level Atlanta Center
10:58AM 36.1708 -83.8844 North 165 190 9,100  Level Atlanta Center
10:59AM 36.2189 -83.8842 360° North 165 190 9,100  Level Atlanta Center
10:59AM 36.2478 -83.8794 North 169 194 9,100  Level Indianapolis Center
11:00AM 36.2942 -83.8756 North 168 193 9,100  Level Indianapolis Center
11:01AM 36.3411 -83.8725 North 168 193 9,100  Level Indianapolis Center
11:02AM 36.3878 -83.8703 North 168 193 9,100  Level Indianapolis Center
11:03AM 36.4378 -83.8686 North 170 196 9,100  Level Indianapolis Center
11:04AM 36.4828 -83.8647 North 170 196 9,100  Level Indianapolis Center
11:05AM 36.5333 -83.8633 North 171 197 9,100  Level Indianapolis Center
11:06AM 36.5892 -83.8594 North 172 198 9,100  Level Indianapolis Center
11:07AM 36.6375 -83.8575 North 173 199 9,100  Level Indianapolis Center
11:08AM 36.6861 -83.8553 North 173 199 9,100  Level Indianapolis Center
11:09AM 36.7350 -83.8533 North 174 200 9,100  Level Indianapolis Center
11:10AM 36.7819 -83.8500 North 172 198 9,100  Level Indianapolis Center
11:11AM 36.8311 -83.8475 North 174 200 9,100  Level Indianapolis Center
11:12AM 36.8797 -83.8453 North 174 200 9,100  Level Indianapolis Center
11:13AM 36.9281 -83.8417 North 174 200 9,100  Level Indianapolis Center
11:14AM 36.9839 -83.8386 North 171 197 9,100  Level Indianapolis Center
11:16AM 37.0319 -83.8367 North 171 197 9,100  Level Indianapolis Center
11:17AM 37.0797 -83.8342 North 171 197 9,100  Level Indianapolis Center
11:18AM 37.1294 -83.8317 North 175 201 9,100  Level Indianapolis Center
11:19AM 37.1772 -83.8303 North 172 198 9,100  Level Indianapolis Center
11:20AM 37.2253 -83.8267 North 172 198 9,100  Level Indianapolis Center
11:21AM 37.2733 -83.8239 North 173 199 9,100  Level Indianapolis Center
11:22AM 37.3317 -83.8206 North 177 204 9,100  Level Indianapolis Center
11:23AM 37.3789 -83.8172 North 173 199 9,100  Level Indianapolis Center
11:24AM 37.4264 -83.8156 North 170 196 9,100  Level Indianapolis Center
11:25AM 37.4750 -83.8122 North 173 199 9,100  Level Indianapolis Center
11:26AM 37.5219 -83.8106 North 169 194 9,100  Level Indianapolis Center
11:27AM 37.5703 -83.8072 North 172 198 9,100  Level Indianapolis Center
11:28AM 37.6189 -83.8053 North 173 199 9,100  Level Indianapolis Center
11:29AM 37.6744 -83.8019 North 171 197 9,100  Level Indianapolis Center
11:30AM 37.7236 -83.7997 North 174 200 9,100  Level Indianapolis Center
11:31AM 37.7711 -83.7961 North 171 197 9,100  Level Indianapolis Center
11:32AM 37.8178 -83.7950 North 168 193 9,100  Level Indianapolis Center
11:33AM 37.8647 -83.7919 North 168 193 9,100  Level Indianapolis Center
11:34AM 37.9114 -83.7881 North 167 192 9,100  Level Indianapolis Center
11:35AM 37.9589 -83.7858 North 169 194 9,100  Level Indianapolis Center
11:36AM 38.0133 -83.7828 North 168 193 9,100  Level Indianapolis Center
11:37AM 38.0608 -83.7811 North 169 194 9,100  Level Indianapolis Center
11:38AM 38.1075 -83.7794 North 168 193 9,100  Level Indianapolis Center
11:39AM 38.1567 -83.7728 North 173 199 9,100  Level Indianapolis Center
11:40AM 38.2042 -83.7703 North 172 198 9,100  Level Indianapolis Center
11:41AM 38.2519 -83.7689 North 171 197 9,100  Level Indianapolis Center
11:42AM 38.2997 -83.7656 North 171 197 9,100  Level Indianapolis Center
11:43AM 38.3539 -83.7611 North 169 194 9,100  Level Indianapolis Center
11:44AM 38.3994 -83.7608 360° North 165 190 9,100  Level Indianapolis Center
11:45AM 38.4453 -83.7572 North 164 189 9,100  Level Indianapolis Center
11:46AM 38.4906 -83.7547 North 163 188 9,100  Level Indianapolis Center
11:47AM 38.5347 -83.7528 North 160 184 9,100  Level Indianapolis Center
11:48AM 38.5794 -83.7494 North 160 184 9,100  Level Indianapolis Center
11:49AM 38.6244 -83.7467 North 161 185 9,200  Climbing Indianapolis Center
11:50AM 38.6769 -83.7433 North 161 185 9,100 -60 Descending Indianapolis Center
11:51AM 38.7203 -83.7564 347° North 161 185 9,100  Level Indianapolis Center
11:53AM 38.7631 -83.7694 347° North 158 182 9,100  Level Indianapolis Center
11:54AM 38.8075 -83.7778 352° North 160 184 9,100  Level Indianapolis Center
11:55AM 38.8506 -83.7847 353° North 158 182 9,200  Climbing Indianapolis Center
11:56AM 38.8956 -83.7822 North 159 183 9,200 -60 Level Indianapolis Center
11:57AM 38.9428 -83.7797 North 160 184 9,100 -60 Descending Indianapolis Center
11:58AM 38.9864 -83.7767 North 158 182 9,100  Level Indianapolis Center
11:58AM 39.0147 -83.7756 North 166 191 9,100  Level Indianapolis Center
11:59AM 39.0547 -83.7742 North 160 184 9,100 60 Level Indianapolis Center
12:00PM 39.0772 -83.7703 North 163 188 9,200 -120 Climbing Indianapolis Center
12:01PM 39.1222 -83.7669 North 162 186 9,000 -120 Descending Indianapolis Center
12:02PM 39.1664 -83.7636 North 160 184 9,000  Level Indianapolis Center
12:03PM 39.2219 -83.7608 North 164 189 9,000  Level Indianapolis Center
12:04PM 39.2683 -83.7569 North 166 191 9,000  Level Indianapolis Center
12:05PM 39.3144 -83.7506 North 166 191 9,100  Climbing Indianapolis Center
12:06PM 39.3600 -83.7475 North 166 191 9,000  Descending Indianapolis Center
12:07PM 39.4053 -83.7464 North 163 188 9,100  Climbing Indianapolis Center
12:08PM 39.4681 -83.7419 North 164 189 9,100  Level Indianapolis Center
12:09PM 39.4983 -83.7339 12° North 168 193 9,100  Level Indianapolis Center
12:10PM 39.5436 -83.7261 North 166 191 9,200  Climbing Indianapolis Center
12:11PM 39.5928 -83.7231 North 170 196 9,100 -60 Descending Indianapolis Center
12:12PM 39.6461 -83.7228 360° North 166 191 9,100  Level Indianapolis Center
12:13PM 39.6997 -83.7189 North 167 192 9,100  Level Indianapolis Center
12:14PM 39.7394 -83.7069 13° North 169 194 9,100  Level Indianapolis Center
12:15PM 39.7886 -83.6983 North 172 198 9,200  Climbing Indianapolis Center
12:16PM 39.8367 -83.6947 North 175 201 9,100 -60 Descending Indianapolis Center
12:17PM 39.8850 -83.6961 359° North 167 192 9,100  Level Indianapolis Center
12:18PM 39.9317 -83.6931 North 167 192 9,200  Climbing Indianapolis Center
12:19PM 39.9742 -83.6894 North 168 193 9,100 -60 Descending Indianapolis Center
12:20PM 40.0381 -83.6836 North 166 191 9,100  Level Indianapolis Center
12:21PM 40.0847 -83.6814 North 165 190 9,100  Level Indianapolis Center
12:22PM 40.1158 -83.6808 North 167 192 9,100  Level Indianapolis Center
12:23PM 40.1772 -83.6686 North 166 191 9,100  Level Indianapolis Center
12:25PM 40.2242 -83.6578 10° North 168 193 9,200  Climbing Indianapolis Center
12:26PM 40.2706 -83.6572 North 166 191 9,100 -60 Descending Indianapolis Center
12:27PM 40.3189 -83.6556 North 168 193 9,100  Level Indianapolis Center
12:28PM 40.3636 -83.6517 North 165 190 9,200  Climbing Indianapolis Center
12:29PM 40.4103 -83.6506 North 166 191 9,200 -60 Level Indianapolis Center
12:30PM 40.4561 -83.6464 North 164 189 9,100 -60 Descending Indianapolis Center
12:31PM 40.5031 -83.6422 North 166 191 9,100  Level Indianapolis Center
12:32PM 40.5594 -83.6408 North 168 193 9,100  Level Indianapolis Center
12:33PM 40.6078 -83.6372 North 170 196 9,100  Level Indianapolis Center
12:34PM 40.6553 -83.6344 North 170 196 9,100  Level Indianapolis Center
12:35PM 40.7039 -83.6308 North 171 197 9,100  Level Indianapolis Center
12:36PM 40.7519 -83.6286 North 171 197 9,200  Climbing Indianapolis Center
12:37PM 40.8000 -83.6256 North 172 198 9,200 -60 Level Indianapolis Center
12:38PM 40.8453 -83.6206 North 168 193 9,100 -60 Descending Indianapolis Center
12:39PM 40.8944 -83.6150 North 170 196 9,100  Level Indianapolis Center
12:40PM 40.9453 -83.6078 North 175 201 9,100  Level Indianapolis Center
12:41PM 40.9939 -83.6000 North 176 203 9,100  Level Indianapolis Center
12:42PM 41.0408 -83.6042 356° North 171 197 9,100  Level Indianapolis Center
12:43PM 41.0953 -83.6072 358° North 168 193 9,100  Level Indianapolis Center
12:44PM 41.1406 -83.6150 353° North 166 191 9,100 -180 Level Indianapolis Center
12:45PM 41.1856 -83.6319 344° North 162 186 8,800 -600 Descending Cleveland Center
12:51PM 41.5100 -83.7389 346° North 192 221 5,100 -600 Descending Cleveland Center
12:53PM 41.5742 -83.7586 347° North 170 196 4,500 -480 Descending Cleveland Center
12:54PM 41.6153 -83.7717 347° North 156 180 4,100 -240 Descending Cleveland Center
12:55PM 41.6608 -83.7881 345° North 168 193 4,100  Level Cleveland Center
12:56PM 41.7022 -83.8011 347° North 171 197 4,100  Level Cleveland Center
12:57PM 41.7539 -83.8119 351° North 171 197 4,200  Climbing Cleveland Center
12:58PM 41.8014 -83.8256 348° North 170 196 4,100 -60 Descending Cleveland Center
12:59PM 41.8533 -83.8394 349° North 170 196 4,100  Level Cleveland Center
01:00PM 41.8967 -83.8500 350° North 171 197 4,200  Climbing Cleveland Center
01:01PM 41.9442 -83.8692 343° North 171 197 4,100 -60 Descending Cleveland Center
01:02PM 41.9917 -83.8800 350° North 172 198 4,100  Level Cleveland Center
01:03PM 42.0442 -83.8686 North 175 201 4,100  Level Cleveland Center
01:04PM 42.0858 -83.8708 358° North 171 197 4,100  Level Cleveland Center
01:05PM 42.1142 -83.9031 320° Northwest 145 167 4,100  Level Cleveland Center
01:06PM 42.1236 -83.8589 74° East 128 147 4,100  Level Cleveland Center
01:07PM 42.1231 -83.8139 91° East 131 151 4,100  Level Cleveland Center
01:08PM 42.1139 -83.7603 103° East 131 151 4,100 -300 Level Cleveland Center
01:09PM 42.1197 -83.7075 82° East 154 177 3,500 -540 Descending Cleveland Center
01:10PM 42.1456 -83.6778 40° Northeast 122 140 3,100 -240 Descending Cleveland Center
01:11PM 42.1828 -83.6853 352° North 137 158 3,100  Level Cleveland Center
01:12PM 42.2092 -83.7117 323° Northwest 134 154 3,200 240 Climbing Cleveland Center
01:13PM 42.1956 -83.7475 243° Southwest 112 129 3,700 420 Climbing Cleveland Center
01:14PM 42.1761 -83.7775 229° Southwest 105 121 4,100  Climbing Cleveland Center
01:15PM 42.1517 -83.7508 141° Southeast 128 147 3,700 -480 Descending Cleveland Center
01:16PM 42.1403 -83.7111 111° Southeast 118 136 3,200 -300 Descending Cleveland Center
01:17PM 42.1414 -83.6719 88° East 120 138 3,200 -240 Level Cleveland Center
01:18PM 42.1672 -83.6397 43° Northeast 120 138 2,800 -540 Descending Cleveland Center
01:19PM 42.1847 -83.6097 52° Northeast 104 120 2,200 -600 Descending Cleveland Center
01:20PM 42.2064 -83.5800 45° Northeast 101 116 1,600 -600 Descending Cleveland Center
01:21PM 42.2236 -83.5556 46° Northeast 92 106 1,100 -540 Descending Cleveland Center